Portada
METAR-TAF:

METAR-TAF

Aeroports :

Schwäbisch Hall, Alemanya

latitud: 49-07-06N, longitud: 9-47-02E, altitud: 398 m

Observació

L'informe es va fer fa 28 minuts, a les 22:20 UTC
Vent 12 kt del Oest/Sud-Oest
Temperatura 1°C
Humitat 86%
Pressió 1008 hPa
Visibilitat 10 km o més

METAR: EDTY 262220Z AUTO 25012KT 9999 // SCT015/// BKN024/// OVC062/// 01/M01 Q1008

Hora: 23:48 (22:48 UTC)

Pronòstic

L'informe es va fer fa 5 hores i 48 minuts, a les 17:00 UTC
Pronòstic vàlid del 26 a les 18 UTC al 27 a les 03 UTC
Vent 12 kt del Oest
Visibilitat 10 km o més
Cel ennuvolat a una alçada de 1500 ft
Probabilitat 30% :
Temporalment
l' 26 a les 18 UTC al 27 a les 03 UTC
Vent 20 kt del Oest/Sud-Oest amb ràfegues de 30 kt
Visibilitat: 1500 m
Cel ennuvolat a una alçada de 600 ft, Cumulonimbus.
tempesta, neu

TAF: EDTY 261700Z 2618/2703 27012KT 9999 BKN015 PROB30 TEMPO 2618/2703 25020G30KT 1500 TSSN BKN006CB

Observacions i pronòstics meteorològics de més de 4000 aeroports (METAR i TAF).

Les estacions disponibles són els punts grocs i vermells al mapa.

Posi el ratolí al punt desitjat per veure el nom de l'estació.

Feu clic per veure les observacions i els pronòstics meteorològics.

Per canviar el mapa: feu clic els botons verds amb una creu de color negre per apropar; al botó verd amb un guió per allunyar la imatge; o en les fletxes verdes per a mapes adjacents.


METAR-TAF: